Time;durP1;ratioP1;P1;durP2;ratioP2;P2;SDS_P1;SDS_P2;PMS_P1;PMS_P2;Temp;Humidity;BMP_temperature;BMP_pressure;BME280_temperature;BME280_humidity;BME280_pressure;Samples;Min_cycle;Max_cycle;Signal;HPM_P1;HPM_P2
2021/09/06 00:01:14;;;;;;;1999.90;999.90;;;;;;;12.34;49.37;101859.50;5106252;27;97209;-76
2021/09/06 00:03:42;;;;;;;1999.90;999.90;;;;;;;12.25;49.41;101864.53;5085484;27;97599;-77
2021/09/06 00:06:12;;;;;;;1999.90;999.90;;;;;;;12.20;49.67;101867.06;5067516;27;98374;-76
2021/09/06 00:08:39;;;;;;;1999.90;999.90;;;;;;;12.21;49.44;101858.22;5083114;27;100739;-76
2021/09/06 00:11:09;;;;;;;1999.90;999.90;;;;;;;12.24;49.43;101862.75;5058119;27;97701;-77
2021/09/06 00:13:38;;;;;;;1999.90;999.90;;;;;;;12.26;49.37;101861.00;5062860;27;96901;-78
2021/09/06 00:16:07;;;;;;;1999.90;999.90;;;;;;;12.27;49.37;101863.75;5084570;27;98965;-76
2021/09/06 00:18:37;;;;;;;1999.90;999.90;;;;;;;12.29;49.43;101866.47;5080649;27;99297;-76
2021/09/06 00:21:06;;;;;;;1999.90;999.90;;;;;;;12.32;49.14;101866.53;5078318;27;97936;-77
2021/09/06 00:23:34;;;;;;;1999.90;999.90;;;;;;;12.34;49.18;101872.84;5077513;27;97426;-76
2021/09/06 00:26:04;;;;;;;1999.90;999.90;;;;;;;12.35;49.33;101863.97;5066223;27;100951;-76
2021/09/06 00:28:32;;;;;;;1999.90;999.90;;;;;;;12.34;49.08;101862.16;5074612;27;99729;-76
2021/09/06 00:31:00;;;;;;;1999.90;999.90;;;;;;;12.27;49.32;101862.84;5073820;27;97391;-75
2021/09/06 00:33:28;;;;;;;1999.90;999.90;;;;;;;12.24;49.28;101863.63;5080974;27;97120;-76
2021/09/06 00:35:57;;;;;;;1999.90;999.90;;;;;;;12.24;49.21;101865.41;5061587;27;99327;-76
2021/09/06 00:38:25;;;;;;;1999.90;999.90;;;;;;;12.22;49.37;101864.47;5075188;27;97437;-76
2021/09/06 00:40:53;;;;;;;1999.90;999.90;;;;;;;12.12;49.50;101861.47;5083161;27;97081;-77
2021/09/06 00:43:21;;;;;;;1999.90;999.90;;;;;;;12.00;49.86;101866.38;5084855;27;96932;-77
2021/09/06 00:45:50;;;;;;;1999.90;999.90;;;;;;;11.95;49.71;101868.00;5056956;27;99767;-77
2021/09/06 00:48:18;;;;;;;1999.90;999.90;;;;;;;11.78;50.04;101866.53;5094637;27;97538;-76
2021/09/06 00:50:47;;;;;;;1999.90;999.90;;;;;;;11.62;50.20;101872.22;5070384;27;97441;-75
2021/09/06 00:53:17;;;;;;;1999.90;999.90;;;;;;;11.51;50.46;101870.03;5060853;27;97320;-78
2021/09/06 00:55:46;;;;;;;1999.90;999.90;;;;;;;11.49;50.55;101867.31;5098696;27;99471;-78
2021/09/06 00:58:16;;;;;;;1999.90;999.90;;;;;;;11.51;50.53;101873.59;5059098;27;100540;-76
2021/09/06 01:00:45;;;;;;;1999.90;999.90;;;;;;;11.54;50.66;101865.72;5078256;27;97340;-77
2021/09/06 01:03:15;;;;;;;1999.90;999.90;;;;;;;11.58;50.39;101864.06;5056820;27;97222;-77
2021/09/06 01:05:44;;;;;;;1999.90;999.90;;;;;;;11.62;50.26;101868.63;5078570;27;98167;-76
2021/09/06 01:08:45;;;;;;;1999.90;999.90;;;;;;;11.65;50.31;101864.31;5057155;27;101703;-76
2021/09/06 01:11:32;;;;;;;1999.90;999.90;;;;;;;11.66;50.17;101868.81;5076713;27;97643;-77
2021/09/06 01:14:16;;;;;;;1999.90;999.90;;;;;;;11.68;50.15;101863.50;5063423;27;96816;-77
2021/09/06 01:16:45;;;;;;;1999.90;999.90;;;;;;;11.71;50.09;101874.28;5061112;27;100970;-77
2021/09/06 01:19:12;;;;;;;1999.90;999.90;;;;;;;11.74;50.06;101877.94;5061465;27;101085;-77
2021/09/06 01:21:40;;;;;;;1999.90;999.90;;;;;;;11.75;49.99;101879.78;5058031;27;97840;-77
2021/09/06 01:24:28;;;;;;;1999.90;999.90;;;;;;;11.79;49.81;101881.69;5096047;27;97945;-77
2021/09/06 01:27:00;;;;;;;1999.90;999.90;;;;;;;11.80;49.90;101880.84;5066683;27;99629;-76
2021/09/06 01:29:28;;;;;;;1999.90;999.90;;;;;;;11.73;50.02;101878.81;5078163;27;97885;-76
2021/09/06 01:31:58;;;;;;;1999.90;999.90;;;;;;;11.60;50.26;101875.66;5068998;27;97123;-76
2021/09/06 01:34:26;;;;;;;1999.90;999.90;;;;;;;11.46;50.38;101874.28;5067869;27;97298;-76
2021/09/06 01:36:58;;;;;;;1999.90;999.90;;;;;;;11.43;50.42;101872.44;5083259;27;97880;-76
2021/09/06 01:39:27;;;;;;;1999.90;999.90;;;;;;;11.38;50.54;101871.34;5082198;27;98037;-77
2021/09/06 01:41:55;;;;;;;1999.90;999.90;;;;;;;11.39;50.56;101866.94;5082143;27;97687;-75
2021/09/06 01:44:24;;;;;;;1999.90;999.90;;;;;;;11.38;50.57;101868.69;5073306;27;98776;-76
2021/09/06 01:46:52;;;;;;;1999.90;999.90;;;;;;;11.33;50.74;101869.38;5081916;27;96866;-75
2021/09/06 01:49:22;;;;;;;1999.90;999.90;;;;;;;11.18;50.91;101869.72;5082292;27;97598;-76
2021/09/06 01:51:50;;;;;;;1999.90;999.90;;;;;;;11.05;51.07;101872.78;5063091;27;96752;-76
2021/09/06 01:54:17;;;;;;;1999.90;999.90;;;;;;;11.00;51.26;101867.31;5091880;27;97047;-76
2021/09/06 01:56:45;;;;;;;1999.90;999.90;;;;;;;10.99;51.28;101867.25;5068022;27;100542;-77
2021/09/06 01:59:15;;;;;;;1999.90;999.90;;;;;;;11.00;51.29;101867.31;5075511;27;99156;-75
2021/09/06 02:01:45;;;;;;;1999.90;999.90;;;;;;;11.06;51.31;101870.19;5077853;27;96877;-77
2021/09/06 02:04:14;;;;;;;1999.90;999.90;;;;;;;11.09;51.12;101866.72;5064082;27;97195;-75
2021/09/06 02:06:45;;;;;;;1999.90;999.90;;;;;;;11.14;50.96;101868.69;5060969;27;101070;-76
2021/09/06 02:09:13;;;;;;;1999.90;999.90;;;;;;;11.17;50.69;101860.84;5071662;27;99844;-76
2021/09/06 02:11:41;;;;;;;1999.90;999.90;;;;;;;11.19;50.79;101861.81;5090430;27;97984;-75
2021/09/06 02:14:11;;;;;;;1999.90;999.90;;;;;;;11.22;50.67;101860.97;5077670;27;96952;-76
2021/09/06 02:16:42;;;;;;;1999.90;999.90;;;;;;;11.21;50.38;101865.41;5062730;27;99709;-75
2021/09/06 02:19:22;;;;;;;1999.90;999.90;;;;;;;11.20;50.59;101868.00;5080183;27;98046;-76
2021/09/06 02:21:50;;;;;;;1999.90;999.90;;;;;;;11.20;50.67;101863.59;5074741;27;97298;-76
2021/09/06 02:24:18;;;;;;;1999.90;999.90;;;;;;;11.21;50.47;101865.41;5061530;27;97346;-75
2021/09/06 02:26:49;;;;;;;1999.90;999.90;;;;;;;11.23;50.49;101873.47;5083915;27;97639;-76
2021/09/06 02:29:17;;;;;;;1999.90;999.90;;;;;;;11.24;50.36;101869.94;5059143;27;99464;-76
2021/09/06 02:31:57;;;;;;;1999.90;999.90;;;;;;;11.25;50.51;101868.19;5058286;27;97274;-76
2021/09/06 02:34:34;;;;;;;1999.90;999.90;;;;;;;11.25;50.54;101870.84;5059776;27;96979;-76
2021/09/06 02:37:02;;;;;;;1999.90;999.90;;;;;;;11.25;50.34;101877.06;5058968;27;97809;-75
2021/09/06 02:39:38;;;;;;;1999.90;999.90;;;;;;;11.24;50.39;101875.28;5060638;27;99339;-77
2021/09/06 02:42:06;;;;;;;1999.90;999.90;;;;;;;11.24;50.35;101867.28;5067784;27;97224;-75
2021/09/06 02:44:35;;;;;;;1999.90;999.90;;;;;;;11.21;50.35;101864.50;5058952;27;97059;-76
2021/09/06 02:47:07;;;;;;;1999.90;999.90;;;;;;;11.19;50.33;101871.53;5063024;27;101186;-76
2021/09/06 02:49:36;;;;;;;1999.90;999.90;;;;;;;11.17;50.54;101873.25;5058664;27;98703;-76
2021/09/06 02:52:07;;;;;;;1999.90;999.90;;;;;;;11.14;50.56;101867.81;5062096;27;96818;-75
2021/09/06 02:54:35;;;;;;;1999.90;999.90;;;;;;;11.12;50.37;101864.19;5073327;27;97707;-76
2021/09/06 02:57:04;;;;;;;1999.90;999.90;;;;;;;11.08;50.50;101856.94;5062045;27;100735;-75
2021/09/06 02:59:31;;;;;;;1999.90;999.90;;;;;;;11.06;50.56;101855.97;5098117;27;98165;-75
2021/09/06 03:01:59;;;;;;;1999.90;999.90;;;;;;;11.04;50.61;101855.91;5081095;27;96879;-77
2021/09/06 03:04:28;;;;;;;1999.90;999.90;;;;;;;11.01;50.53;101858.44;5059050;27;97295;-74
2021/09/06 03:06:58;;;;;;;1999.90;999.90;;;;;;;10.97;50.57;101850.31;5059093;27;100908;-74
2021/09/06 03:09:26;;;;;;;1999.90;999.90;;;;;;;10.96;50.60;101853.81;5067160;27;99662;-78
2021/09/06 03:11:54;;;;;;;1999.90;999.90;;;;;;;10.93;50.53;101856.34;5066450;27;97755;-75
2021/09/06 03:14:22;;;;;;;1999.90;999.90;;;;;;;10.90;50.85;101861.59;5060595;27;97432;-74
2021/09/06 03:16:52;;;;;;;1999.90;999.90;;;;;;;10.84;50.76;101854.28;5066711;27;99370;-76
2021/09/06 03:19:20;;;;;;;1999.90;999.90;;;;;;;10.82;50.94;101857.72;5081470;27;97731;-77
2021/09/06 03:21:54;;;;;;;1999.90;999.90;;;;;;;10.81;50.55;101862.13;5077008;27;97122;-77
2021/09/06 03:24:25;;;;;;;1999.90;999.90;;;;;;;10.78;50.83;101856.69;5073976;27;97399;-74
2021/09/06 03:26:53;;;;;;;1999.90;999.90;;;;;;;10.77;50.96;101852.25;5072124;27;99662;-75
2021/09/06 03:29:22;;;;;;;1999.90;999.90;;;;;;;10.76;50.96;101846.84;5076221;27;98166;-75
2021/09/06 03:31:49;;;;;;;1999.90;999.90;;;;;;;10.75;51.04;101843.28;5059288;27;97694;-74
2021/09/06 03:34:18;;;;;;;1999.90;999.90;;;;;;;10.74;51.07;101846.78;5059853;27;97685;-77
2021/09/06 03:36:48;;;;;;;1999.90;999.90;;;;;;;10.73;50.94;101850.31;5062102;27;98954;-78
2021/09/06 03:39:19;;;;;;;1999.90;999.90;;;;;;;10.74;51.09;101846.78;5080933;27;98102;-76
2021/09/06 03:41:49;;;;;;;1999.90;999.90;;;;;;;10.75;51.06;101847.69;5065620;27;97028;-76
2021/09/06 03:44:21;;;;;;;1999.90;999.90;;;;;;;10.70;51.24;101850.16;5078598;27;96824;-74
2021/09/06 03:46:49;;;;;;;1999.90;999.90;;;;;;;10.62;51.45;101851.66;5062830;27;99746;-77
2021/09/06 03:49:17;;;;;;;1999.90;999.90;;;;;;;10.58;51.46;101844.41;5078483;27;99214;-75
2021/09/06 03:51:47;;;;;;;1999.90;999.90;;;;;;;10.59;51.57;101846.22;5096818;27;96947;-75
2021/09/06 03:54:18;;;;;;;1999.90;999.90;;;;;;;10.62;51.43;101853.41;5078396;27;97080;-76
2021/09/06 03:56:46;;;;;;;1999.90;999.90;;;;;;;10.63;51.55;101841.94;5057999;27;100350;-73
2021/09/06 03:59:15;;;;;;;1999.90;999.90;;;;;;;10.63;51.49;101845.47;5062584;27;99094;-77
2021/09/06 04:01:46;;;;;;;1999.90;999.90;;;;;;;10.61;51.60;101848.94;5072829;27;96922;-75
2021/09/06 04:04:16;;;;;;;1999.90;999.90;;;;;;;10.63;51.43;101845.47;5062554;27;97134;-75
2021/09/06 04:06:44;;;;;;;1999.90;999.90;;;;;;;10.66;51.41;101842.03;5081583;27;97083;-75
2021/09/06 04:09:17;;;;;;;1999.90;999.90;;;;;;;10.68;51.39;101843.00;5078603;27;97550;-74
2021/09/06 04:11:45;;;;;;;1999.90;999.90;;;;;;;10.67;51.38;101838.50;5055499;27;96954;-73
2021/09/06 04:14:17;;;;;;;1999.90;999.90;;;;;;;10.66;51.32;101839.38;5060221;27;97701;-74
2021/09/06 04:16:49;;;;;;;1999.90;999.90;;;;;;;10.67;51.37;101844.75;5082755;27;98307;-73
2021/09/06 04:19:17;;;;;;;1999.90;999.90;;;;;;;10.67;51.24;101843.81;5064400;27;97420;-74
2021/09/06 04:21:46;;;;;;;1999.90;999.90;;;;;;;10.64;51.24;101841.06;5074743;27;96938;-74
2021/09/06 04:24:15;;;;;;;1999.90;999.90;;;;;;;10.61;51.25;101857.81;5079031;27;97500;-74
2021/09/06 04:26:43;;;;;;;1999.90;999.90;;;;;;;10.60;51.48;101855.09;5073215;27;99213;-74
2021/09/06 04:29:11;;;;;;;1999.90;999.90;;;;;;;10.56;51.23;101845.19;5078955;27;99678;-74
2021/09/06 04:31:40;;;;;;;1999.90;999.90;;;;;;;10.55;51.36;101851.38;5075475;27;98975;-74
2021/09/06 04:34:08;;;;;;;1999.90;999.90;;;;;;;10.52;51.29;101846.81;5070443;27;97767;-76
2021/09/06 04:36:36;;;;;;;1999.90;999.90;;;;;;;10.50;51.22;101855.63;5062641;27;99816;-74
2021/09/06 04:39:05;;;;;;;1999.90;999.90;;;;;;;10.49;51.26;101843.13;5075422;27;97631;-74
2021/09/06 04:41:32;;;;;;;1999.90;999.90;;;;;;;10.47;51.29;101855.47;5075456;27;97553;-75
2021/09/06 04:44:00;;;;;;;1999.90;999.90;;;;;;;10.45;51.32;101865.19;5057142;27;98006;-74
2021/09/06 04:46:29;;;;;;;1999.90;999.90;;;;;;;10.41;51.73;101861.47;5070525;27;97264;-74
2021/09/06 04:48:58;;;;;;;1999.90;999.90;;;;;;;10.38;51.34;101865.72;5077896;27;97598;-75
2021/09/06 04:51:26;;;;;;;1999.90;999.90;;;;;;;10.36;51.53;101867.41;5056458;27;97452;-75
2021/09/06 04:53:55;;;;;;;1999.90;999.90;;;;;;;10.32;51.61;101879.69;5074891;27;97108;-76
2021/09/06 04:56:25;;;;;;;1999.90;999.90;;;;;;;10.29;51.62;101884.91;5051276;27;99309;-75
2021/09/06 04:58:57;;;;;;;1999.90;999.90;;;;;;;10.27;51.74;101885.69;5071616;27;98810;-75
2021/09/06 05:01:25;;;;;;;1999.90;999.90;;;;;;;10.26;51.60;101891.84;5088564;27;96941;-75
2021/09/06 05:03:53;;;;;;;1999.90;999.90;;;;;;;10.24;51.66;101894.47;5094398;27;98186;-75
2021/09/06 05:06:22;;;;;;;1999.90;999.90;;;;;;;10.23;51.58;101901.53;5080995;27;99233;-74
2021/09/06 05:08:50;;;;;;;1999.90;999.90;;;;;;;10.22;51.75;101904.13;5059275;27;98431;-77
2021/09/06 05:11:18;;;;;;;1999.90;999.90;;;;;;;10.20;51.74;101906.75;5060294;27;97480;-77
2021/09/06 05:13:46;;;;;;;1999.90;999.90;;;;;;;10.19;51.59;101899.59;5078109;27;97455;-74
2021/09/06 05:16:16;;;;;;;1999.90;999.90;;;;;;;10.18;51.54;101907.50;5099421;27;97770;-77
2021/09/06 05:18:45;;;;;;;1999.90;999.90;;;;;;;10.14;51.59;101910.88;5083146;27;98679;-77
2021/09/06 05:21:13;;;;;;;1999.90;999.90;;;;;;;10.14;51.78;101911.81;5058331;27;97780;-77
2021/09/06 05:23:42;;;;;;;1999.90;999.90;;;;;;;10.16;51.80;101906.53;5092348;27;97313;-76
2021/09/06 05:26:13;;;;;;;1999.90;999.90;;;;;;;10.14;52.08;101901.16;5069198;27;98922;-76
2021/09/06 05:28:41;;;;;;;1999.90;999.90;;;;;;;10.16;51.82;101910.13;5058250;27;99431;-77
2021/09/06 05:31:10;;;;;;;1999.90;999.90;;;;;;;10.20;51.75;101906.75;5073543;27;97196;-77
2021/09/06 05:33:41;;;;;;;1999.90;999.90;;;;;;;10.22;51.86;101914.78;5080934;27;97367;-76
2021/09/06 05:36:12;;;;;;;1999.90;999.90;;;;;;;10.24;51.80;101918.41;5070628;27;99900;-76
2021/09/06 05:38:42;;;;;;;1999.90;999.90;;;;;;;10.21;51.81;101919.19;5076560;27;97966;-77
2021/09/06 05:41:25;;;;;;;1999.90;999.90;;;;;;;10.19;51.96;101925.31;5074916;27;97615;-74
2021/09/06 05:43:53;;;;;;;1999.90;999.90;;;;;;;10.21;51.72;101918.25;5061784;27;97521;-74
2021/09/06 05:46:24;;;;;;;1999.90;999.90;;;;;;;10.22;51.80;101920.09;5080848;27;99424;-74
2021/09/06 05:48:52;;;;;;;1999.90;999.90;;;;;;;10.21;51.99;101921.84;5080322;27;98781;-73
2021/09/06 05:51:20;;;;;;;1999.90;999.90;;;;;;;10.18;51.95;101923.47;5079776;27;97089;-75
2021/09/06 05:54:12;;;;;;;1999.90;999.90;;;;;;;10.15;52.09;101926.94;5073704;27;98380;-74
2021/09/06 05:56:40;;;;;;;1999.90;999.90;;;;;;;10.11;52.30;101935.63;5081026;27;99681;-75
2021/09/06 05:59:08;;;;;;;1999.90;999.90;;;;;;;10.11;52.19;101937.38;5098443;27;97704;-76
2021/09/06 06:01:37;;;;;;;1999.90;999.90;;;;;;;10.11;52.39;101932.97;5080550;27;97551;-75
2021/09/06 06:04:05;;;;;;;1999.90;999.90;;;;;;;10.15;52.26;101934.91;5090095;27;96878;-77
2021/09/06 06:06:37;;;;;;;1999.90;999.90;;;;;;;10.23;52.31;101931.66;5077237;27;97811;-74
2021/09/06 06:09:05;;;;;;;1999.90;999.90;;;;;;;10.31;52.24;101932.84;5079357;27;97932;-76
2021/09/06 06:11:38;;;;;;;1999.90;999.90;;;;;;;10.35;51.92;101929.47;5078215;27;96856;-76
2021/09/06 06:14:12;;;;;;;1999.90;999.90;;;;;;;10.43;52.06;101941.38;5083352;27;97230;-75
2021/09/06 06:16:42;;;;;;;1999.90;999.90;;;;;;;10.48;51.76;101945.13;5059631;27;99599;-75
2021/09/06 06:19:10;;;;;;;1999.90;999.90;;;;;;;10.52;51.91;101939.09;5076978;27;97625;-75
2021/09/06 06:21:56;;;;;;;1999.90;999.90;;;;;;;10.56;51.75;101943.66;5094117;27;97146;-76
2021/09/06 06:24:48;;;;;;;1999.90;999.90;;;;;;;10.51;51.85;101945.25;5059453;27;96926;-77
2021/09/06 06:27:24;;;;;;;1999.90;999.90;;;;;;;10.41;52.10;101954.59;5062984;27;100838;-76
2021/09/06 06:29:53;;;;;;;1999.90;999.90;;;;;;;10.36;52.24;101956.13;5068105;27;99773;-76
2021/09/06 06:32:21;;;;;;;1999.90;999.90;;;;;;;10.37;52.25;101951.72;5084977;27;97596;-74
2021/09/06 06:34:56;;;;;;;1999.90;999.90;;;;;;;10.33;52.28;101955.09;5063900;27;97636;-77
2021/09/06 06:37:23;;;;;;;1999.90;999.90;;;;;;;10.32;52.42;101953.31;5074012;27;97884;-74
2021/09/06 06:39:51;;;;;;;1999.90;999.90;;;;;;;10.36;52.38;101950.81;5073885;27;99385;-76
2021/09/06 06:42:19;;;;;;;1999.90;999.90;;;;;;;10.43;52.33;101955.56;5079345;27;97273;-77
2021/09/06 06:44:50;;;;;;;1999.90;999.90;;;;;;;10.51;52.25;101953.22;5081317;27;99386;-77
2021/09/06 06:47:19;;;;;;;1999.90;999.90;;;;;;;10.54;52.33;101956.91;5085239;27;99299;-77
2021/09/06 06:49:47;;;;;;;1999.90;999.90;;;;;;;10.58;52.05;101956.19;5065384;27;99409;-75
2021/09/06 06:52:15;;;;;;;1999.90;999.90;;;;;;;10.53;52.47;101951.53;5062815;27;97153;-74
2021/09/06 06:54:46;;;;;;;1999.90;999.90;;;;;;;10.53;52.37;101947.13;5074918;27;97355;-75
2021/09/06 06:57:13;;;;;;;1999.90;999.90;;;;;;;10.51;52.65;101943.50;5078436;27;99860;-76
2021/09/06 06:59:41;;;;;;;1999.90;999.90;;;;;;;10.50;52.63;101952.34;5062628;27;100878;-77
2021/09/06 07:02:13;;;;;;;1999.90;999.90;;;;;;;10.54;52.42;101956.03;5081136;27;96830;-76
2021/09/06 07:04:42;;;;;;;1999.90;999.90;;;;;;;10.60;52.57;101954.50;5072879;27;97401;-75
2021/09/06 07:07:10;;;;;;;1999.90;999.90;;;;;;;10.63;52.47;101956.38;5059623;27;100813;-74
2021/09/06 07:09:39;;;;;;;1999.90;999.90;;;;;;;10.69;52.36;101956.59;5077610;27;97675;-75
2021/09/06 07:12:07;;;;;;;1999.90;999.90;;;;;;;10.76;52.68;101950.66;5074261;27;97319;-74
2021/09/06 07:14:36;;;;;;;1999.90;999.90;;;;;;;10.77;52.59;101960.50;5076359;27;97091;-74
2021/09/06 07:17:06;;;;;;;1999.90;999.90;;;;;;;10.76;52.55;101959.56;5075891;27;99206;-75
2021/09/06 07:19:36;;;;;;;1999.90;999.90;;;;;;;10.81;52.48;101949.13;5065116;27;98431;-75
2021/09/06 07:22:04;;;;;;;1999.90;999.90;;;;;;;10.88;52.46;101951.16;5061342;27;97318;-75
2021/09/06 07:24:33;;;;;;;1999.90;999.90;;;;;;;10.94;52.42;101954.06;5065658;27;97064;-75
2021/09/06 07:27:01;;;;;;;1999.90;999.90;;;;;;;10.97;52.32;101949.78;5089450;27;97576;-74
2021/09/06 07:29:29;;;;;;;1999.90;999.90;;;;;;;11.00;52.37;101955.19;5057691;27;99222;-75
2021/09/06 07:32:00;;;;;;;1999.90;999.90;;;;;;;11.02;52.32;101955.25;5078909;27;97869;-75
2021/09/06 07:34:32;;;;;;;1999.90;999.90;;;;;;;11.04;52.45;101957.13;5076811;27;97894;-74
2021/09/06 07:37:02;;;;;;;1999.90;999.90;;;;;;;11.05;52.55;101955.34;5057622;27;100481;-75
2021/09/06 07:39:30;;;;;;;1999.90;999.90;;;;;;;11.05;52.58;101963.34;5075701;27;98807;-75
2021/09/06 07:41:58;;;;;;;1999.90;999.90;;;;;;;11.03;52.67;101965.06;5069193;27;97136;-76
2021/09/06 07:44:26;;;;;;;1999.90;999.90;;;;;;;11.03;52.70;101965.06;5076464;27;97836;-75
2021/09/06 07:46:54;;;;;;;1999.90;999.90;;;;;;;11.10;52.37;101967.13;5061031;27;100657;-75
2021/09/06 07:49:22;;;;;;;1999.90;999.90;;;;;;;11.19;52.52;101967.47;5095073;27;97535;-74
2021/09/06 07:51:52;;;;;;;1999.90;999.90;;;;;;;11.23;52.30;101964.94;5060598;27;96716;-75
2021/09/06 07:54:25;;;;;;;1999.90;999.90;;;;;;;11.31;52.22;101959.94;5066013;27;97243;-75
2021/09/06 07:56:56;;;;;;;1999.90;999.90;;;;;;;11.42;52.20;101960.31;5076876;27;97027;-75
2021/09/06 07:59:28;;;;;;;1999.90;999.90;;;;;;;11.52;52.14;101962.50;5075473;27;98184;-75
2021/09/06 08:01:56;;;;;;;1999.90;999.90;;;;;;;11.62;52.01;101962.88;5082708;27;97561;-74
2021/09/06 08:04:26;;;;;;;1999.90;999.90;;;;;;;11.73;51.86;101968.56;5059995;27;97066;-75
2021/09/06 08:06:56;;;;;;;1999.90;999.90;;;;;;;11.81;51.91;101972.44;5058048;27;99810;-75
2021/09/06 08:09:25;;;;;;;1999.90;999.90;;;;;;;11.89;51.56;101974.50;5059021;27;98071;-74
2021/09/06 08:11:55;;;;;;;1999.90;999.90;;;;;;;11.98;51.68;101972.13;5076004;27;96803;-75
2021/09/06 08:14:24;;;;;;;1999.90;999.90;;;;;;;12.05;51.66;101966.16;5057532;27;98138;-75
2021/09/06 08:16:52;;;;;;;1999.90;999.90;;;;;;;12.13;51.52;101969.09;5063660;27;98000;-75
2021/09/06 08:19:19;;;;;;;1999.90;999.90;;;;;;;12.21;51.42;101972.06;5065721;27;99963;-77
2021/09/06 08:21:48;;;;;;;1999.90;999.90;;;;;;;12.26;51.61;101970.44;5062258;27;97085;-74
2021/09/06 08:24:16;;;;;;;1999.90;999.90;;;;;;;12.31;51.54;101979.53;5065837;27;97108;-75
2021/09/06 08:26:45;;;;;;;1999.90;999.90;;;;;;;12.35;51.45;101977.00;5083324;27;99317;-75
2021/09/06 08:29:14;;;;;;;1999.90;999.90;;;;;;;12.40;51.42;101979.81;5081040;27;98894;-76
2021/09/06 08:31:42;;;;;;;1999.90;999.90;;;;;;;12.73;51.48;101963.09;5071336;27;97534;-73
2021/09/06 08:34:10;;;;;;;1999.90;999.90;;;;;;;12.65;51.76;101974.41;5082401;27;97578;-76
2021/09/06 08:36:43;;;;;;;1999.90;999.90;;;;;;;12.66;51.56;101973.53;5078595;27;97850;-74
2021/09/06 08:39:11;;;;;;;1999.90;999.90;;;;;;;12.70;51.53;101968.34;5059692;27;99689;-74
2021/09/06 08:41:40;;;;;;;1999.90;999.90;;;;;;;12.77;51.40;101969.44;5071266;27;97101;-75
2021/09/06 08:44:09;;;;;;;1999.90;999.90;;;;;;;12.82;51.35;101970.50;5064387;27;96914;-77
2021/09/06 08:46:37;;;;;;;1999.90;999.90;;;;;;;12.96;51.35;101977.16;5094576;27;97687;-74
2021/09/06 08:49:07;;;;;;;1999.90;999.90;;;;;;;13.04;50.91;101975.66;5081762;27;99354;-76
2021/09/06 08:51:35;;;;;;;1999.90;999.90;;;;;;;13.11;50.79;101978.56;5063468;27;96848;-76
2021/09/06 08:54:03;;;;;;;1999.90;999.90;;;;;;;13.18;50.68;101975.19;5082529;27;97921;-74
2021/09/06 08:56:33;;;;;;;1999.90;999.90;;;;;;;13.26;50.58;101983.44;5065517;27;98553;-74
2021/09/06 08:59:11;;;;;;;1999.90;999.90;;;;;;;13.31;50.54;101976.50;5079156;27;101005;-74
2021/09/06 09:01:42;;;;;;;1999.90;999.90;;;;;;;13.58;50.68;101979.94;5059783;27;97301;-75
2021/09/06 09:04:40;;;;;;;1999.90;999.90;;;;;;;13.52;50.71;101981.50;5083975;27;99199;-74
2021/09/06 09:07:28;;;;;;;1999.90;999.90;;;;;;;13.55;50.53;101982.50;5078274;27;100548;-74
2021/09/06 09:10:27;;;;;;;1999.90;999.90;;;;;;;13.56;50.89;101984.34;5078714;27;100487;-74
2021/09/06 09:13:13;;;;;;;1999.90;999.90;;;;;;;13.63;50.51;101985.41;5093306;27;97297;-74
2021/09/06 09:16:11;;;;;;;1999.90;999.90;;;;;;;13.70;50.23;101982.94;4991739;27;98412;-74
2021/09/06 09:19:05;;;;;;;1999.90;999.90;;;;;;;13.76;50.34;101983.13;5073647;27;96869;-74
2021/09/06 09:21:41;;;;;;;1999.90;999.90;;;;;;;13.80;49.92;101985.06;5078240;27;99136;-74
2021/09/06 09:24:23;;;;;;;1999.90;999.90;;;;;;;14.09;49.71;101984.03;5076451;27;96946;-75
2021/09/06 09:27:31;;;;;;;1999.90;999.90;;;;;;;14.26;49.49;101984.47;5061223;27;98597;-75
2021/09/06 09:30:05;;;;;;;1999.90;999.90;;;;;;;14.13;49.91;101980.56;5060311;27;100499;-75
2021/09/06 09:32:40;;;;;;;1999.90;999.90;;;;;;;14.39;49.75;101977.66;5065449;27;97692;-75
2021/09/06 09:35:12;;;;;;;1999.90;999.90;;;;;;;14.52;49.08;101988.69;5081389;27;97873;-75
2021/09/06 09:37:45;;;;;;;1999.90;999.90;;;;;;;14.43;49.21;101979.50;5081130;27;97822;-75
2021/09/06 09:40:16;;;;;;;1999.90;999.90;;;;;;;14.42;49.34;101975.94;5083654;27;98332;-75
2021/09/06 09:42:47;;;;;;;1999.90;999.90;;;;;;;14.44;49.07;101975.97;5057293;27;101046;-75
2021/09/06 09:45:23;;;;;;;1999.90;999.90;;;;;;;14.43;49.43;101964.34;5076812;27;97898;-75
2021/09/06 09:48:11;;;;;;;1999.90;999.90;;;;;;;14.46;49.40;101967.13;5078030;27;97994;-75
2021/09/06 09:50:39;;;;;;;1999.90;999.90;;;;;;;14.49;48.93;101961.81;5075770;27;99785;-75
2021/09/06 09:53:08;;;;;;;1999.90;999.90;;;;;;;14.53;49.46;101970.84;5095876;27;98566;-76
2021/09/06 09:55:36;;;;;;;1999.90;999.90;;;;;;;14.78;48.59;101958.09;5095278;27;98015;-75
2021/09/06 09:58:04;;;;;;;1999.90;999.90;;;;;;;14.92;48.47;101967.31;5077508;27;97916;-74
2021/09/06 10:00:33;;;;;;;1999.90;999.90;;;;;;;14.82;48.57;101956.38;5080370;27;99314;-75
2021/09/06 10:03:04;;;;;;;1999.90;999.90;;;;;;;14.81;48.60;101957.25;5059769;27;100641;-75
2021/09/06 10:05:38;;;;;;;1999.90;999.90;;;;;;;15.02;47.55;101957.72;5077037;27;97217;-75
2021/09/06 10:08:10;;;;;;;1999.90;999.90;;;;;;;14.95;48.02;101953.09;5097550;27;97227;-76
2021/09/06 10:10:41;;;;;;;1999.90;999.90;;;;;;;14.97;47.97;101954.03;5096724;27;98522;-75
2021/09/06 10:13:11;;;;;;;1999.90;999.90;;;;;;;15.00;48.19;101954.09;5074513;27;100767;-75
2021/09/06 10:15:41;;;;;;;1999.90;999.90;;;;;;;15.02;48.12;101950.59;5068570;27;98121;-75
2021/09/06 10:18:19;;;;;;;1999.90;999.90;;;;;;;15.05;47.94;101944.38;5098674;27;97506;-75
2021/09/06 10:20:53;;;;;;;1999.90;999.90;;;;;;;15.09;47.64;101943.56;5093831;27;97318;-75
2021/09/06 10:23:25;;;;;;;1999.90;999.90;;;;;;;15.14;48.03;101941.88;5080313;27;100777;-75
2021/09/06 10:26:08;;;;;;;1999.90;999.90;;;;;;;15.17;47.94;101940.16;5062183;27;96780;-76
2021/09/06 10:28:35;;;;;;;1999.90;999.90;;;;;;;15.23;47.83;101936.69;5077217;27;97277;-75
2021/09/06 10:31:05;;;;;;;1999.90;999.90;;;;;;;15.27;47.72;101925.16;5090794;27;97637;-75
2021/09/06 10:33:35;;;;;;;1999.90;999.90;;;;;;;15.31;47.56;101929.75;5069858;27;97763;-75
2021/09/06 10:36:07;;;;;;;1999.90;999.90;;;;;;;15.52;46.67;101921.22;5072660;27;97547;-75
2021/09/06 10:38:42;;;;;;;1999.90;999.90;;;;;;;15.48;47.34;101925.63;5076684;27;97154;-75
2021/09/06 10:41:15;;;;;;;1999.90;999.90;;;;;;;15.50;47.45;101909.56;5083480;27;101249;-75
2021/09/06 10:43:49;;;;;;;1999.90;999.90;;;;;;;15.57;47.24;101924.91;5077518;27;99774;-75
2021/09/06 10:46:18;;;;;;;1999.90;999.90;;;;;;;15.59;47.00;101918.69;5080676;27;98013;-76
2021/09/06 10:48:49;;;;;;;1999.90;999.90;;;;;;;15.63;47.32;101923.22;5075451;27;97103;-75
2021/09/06 10:51:25;;;;;;;1999.90;999.90;;;;;;;15.71;47.05;101928.72;5080158;27;99686;-75
2021/09/06 10:53:55;;;;;;;1999.90;999.90;;;;;;;15.78;46.79;101928.88;5079195;27;100737;-75
2021/09/06 10:56:25;;;;;;;1999.90;999.90;;;;;;;15.84;46.92;101928.09;5060581;27;97292;-75
2021/09/06 10:58:55;;;;;;;1999.90;999.90;;;;;;;15.90;46.82;101929.06;5095593;27;97683;-75
2021/09/06 11:01:23;;;;;;;1999.90;999.90;;;;;;;15.90;46.61;101923.72;5071709;27;99420;-75
2021/09/06 11:03:53;;;;;;;1999.90;999.90;;;;;;;15.93;46.76;101923.78;5060347;27;99740;-75